Terminal Aerodrome Forecast
Issued by NWS

Home | Current Version | Previous Version | Text Only | Print | Product List | Glossary On
Versions: 1 2 3 4 5 6 7 8 9 10 11 12 13 14 15 16 17 18 19 20 21 22
000
FTUS44 KHGX 100531
TAFSGR
TAF
KSGR 100531Z 1006/1106 03006KT P6SM OVC090
     FM101400 07005KT P6SM BKN070
     FM102100 10008KT P6SM BKN040
     FM110500 11006KT P6SM SCT025 BKN035=

USA.gov is the U.S. government's official web portal to all federal, state and local government web resources and services.